sensor_id;sensor_type;location;lat;lon;timestamp;pressure;altitude;pressure_sealevel;temperature;humidity
40998;BME280;26740;45.944;12.480;2022-08-19T00:01:55;100458.84;;;20.14;100.00
40998;BME280;26740;45.944;12.480;2022-08-19T00:04:24;100455.50;;;20.12;100.00
40998;BME280;26740;45.944;12.480;2022-08-19T00:06:51;100459.88;;;20.26;100.00
40998;BME280;26740;45.944;12.480;2022-08-19T00:09:18;100466.03;;;20.29;100.00
40998;BME280;26740;45.944;12.480;2022-08-19T00:11:44;100500.03;;;20.32;100.00
40998;BME280;26740;45.944;12.480;2022-08-19T00:14:12;100514.44;;;20.31;100.00
40998;BME280;26740;45.944;12.480;2022-08-19T00:16:41;100532.38;;;20.26;100.00
40998;BME280;26740;45.944;12.480;2022-08-19T00:19:09;100527.69;;;20.21;100.00
40998;BME280;26740;45.944;12.480;2022-08-19T00:21:35;100524.16;;;20.07;100.00
40998;BME280;26740;45.944;12.480;2022-08-19T00:24:09;100544.59;;;20.21;100.00
40998;BME280;26740;45.944;12.480;2022-08-19T00:26:36;100548.38;;;20.17;100.00
40998;BME280;26740;45.944;12.480;2022-08-19T00:29:04;100578.41;;;20.13;100.00
40998;BME280;26740;45.944;12.480;2022-08-19T00:31:30;100609.66;;;20.02;100.00
40998;BME280;26740;45.944;12.480;2022-08-19T00:33:56;100631.44;;;20.11;100.00
40998;BME280;26740;45.944;12.480;2022-08-19T00:36:22;100641.22;;;20.13;100.00
40998;BME280;26740;45.944;12.480;2022-08-19T00:38:48;100641.50;;;20.03;100.00
40998;BME280;26740;45.944;12.480;2022-08-19T00:41:19;100649.38;;;19.92;100.00
40998;BME280;26740;45.944;12.480;2022-08-19T00:44:10;100671.59;;;19.94;100.00
40998;BME280;26740;45.944;12.480;2022-08-19T00:46:38;100705.56;;;19.88;100.00
40998;BME280;26740;45.944;12.480;2022-08-19T00:52:09;100678.59;;;19.74;100.00
40998;BME280;26740;45.944;12.480;2022-08-19T00:54:38;100676.06;;;19.72;100.00
40998;BME280;26740;45.944;12.480;2022-08-19T00:57:07;100664.28;;;19.70;100.00
40998;BME280;26740;45.944;12.480;2022-08-19T00:59:36;100663.03;;;19.76;100.00
40998;BME280;26740;45.944;12.480;2022-08-19T01:02:04;100667.66;;;19.95;100.00
40998;BME280;26740;45.944;12.480;2022-08-19T01:04:30;100663.59;;;20.10;100.00
40998;BME280;26740;45.944;12.480;2022-08-19T01:06:56;100650.09;;;19.98;100.00
40998;BME280;26740;45.944;12.480;2022-08-19T01:09:23;100654.25;;;19.78;100.00
40998;BME280;26740;45.944;12.480;2022-08-19T01:11:50;100665.63;;;19.73;100.00
40998;BME280;26740;45.944;12.480;2022-08-19T01:14:17;100665.31;;;19.74;100.00
40998;BME280;26740;45.944;12.480;2022-08-19T01:16:45;100648.69;;;19.86;100.00
40998;BME280;26740;45.944;12.480;2022-08-19T01:19:29;100649.63;;;20.04;100.00
40998;BME280;26740;45.944;12.480;2022-08-19T01:22:02;100655.78;;;20.06;100.00
40998;BME280;26740;45.944;12.480;2022-08-19T01:24:29;100659.44;;;20.07;100.00
40998;BME280;26740;45.944;12.480;2022-08-19T01:26:56;100651.19;;;20.11;100.00
40998;BME280;26740;45.944;12.480;2022-08-19T01:29:21;100655.50;;;20.17;100.00
40998;BME280;26740;45.944;12.480;2022-08-19T01:31:47;100654.75;;;20.02;100.00
40998;BME280;26740;45.944;12.480;2022-08-19T01:34:18;100647.47;;;20.01;100.00
40998;BME280;26740;45.944;12.480;2022-08-19T01:36:46;100653.44;;;20.00;100.00
40998;BME280;26740;45.944;12.480;2022-08-19T01:39:21;100654.13;;;19.83;100.00
40998;BME280;26740;45.944;12.480;2022-08-19T01:41:47;100648.50;;;19.83;100.00
40998;BME280;26740;45.944;12.480;2022-08-19T01:44:15;100655.06;;;19.78;100.00
40998;BME280;26740;45.944;12.480;2022-08-19T01:46:42;100664.25;;;19.84;100.00
40998;BME280;26740;45.944;12.480;2022-08-19T01:49:09;100686.34;;;19.91;100.00
40998;BME280;26740;45.944;12.480;2022-08-19T01:51:36;100701.97;;;19.97;100.00
40998;BME280;26740;45.944;12.480;2022-08-19T01:54:02;100693.91;;;20.04;100.00
40998;BME280;26740;45.944;12.480;2022-08-19T01:56:28;100705.34;;;19.85;100.00
40998;BME280;26740;45.944;12.480;2022-08-19T01:58:58;100708.94;;;19.77;100.00
40998;BME280;26740;45.944;12.480;2022-08-19T02:01:24;100730.66;;;19.99;100.00
40998;BME280;26740;45.944;12.480;2022-08-19T02:03:50;100752.16;;;20.08;100.00
40998;BME280;26740;45.944;12.480;2022-08-19T02:06:17;100770.31;;;20.02;100.00
40998;BME280;26740;45.944;12.480;2022-08-19T02:08:43;100775.16;;;19.88;100.00
40998;BME280;26740;45.944;12.480;2022-08-19T02:11:20;100782.72;;;19.79;100.00
40998;BME280;26740;45.944;12.480;2022-08-19T02:13:46;100797.00;;;19.68;100.00
40998;BME280;26740;45.944;12.480;2022-08-19T02:16:12;100796.38;;;19.58;100.00
40998;BME280;26740;45.944;12.480;2022-08-19T02:18:38;100800.75;;;19.50;100.00
40998;BME280;26740;45.944;12.480;2022-08-19T02:21:04;100782.72;;;19.51;100.00
40998;BME280;26740;45.944;12.480;2022-08-19T02:23:31;100765.22;;;19.54;100.00
40998;BME280;26740;45.944;12.480;2022-08-19T02:25:56;100754.25;;;19.52;100.00
40998;BME280;26740;45.944;12.480;2022-08-19T02:28:22;100728.81;;;19.44;100.00
40998;BME280;26740;45.944;12.480;2022-08-19T02:30:48;100690.66;;;19.38;100.00
40998;BME280;26740;45.944;12.480;2022-08-19T02:33:14;100677.41;;;19.38;100.00
40998;BME280;26740;45.944;12.480;2022-08-19T02:35:42;100646.34;;;19.29;100.00
40998;BME280;26740;45.944;12.480;2022-08-19T02:38:08;100610.19;;;19.23;100.00
40998;BME280;26740;45.944;12.480;2022-08-19T02:40:59;100569.88;;;19.13;100.00
40998;BME280;26740;45.944;12.480;2022-08-19T02:43:25;100537.28;;;18.99;100.00
40998;BME280;26740;45.944;12.480;2022-08-19T02:45:53;100517.31;;;18.86;100.00
40998;BME280;26740;45.944;12.480;2022-08-19T02:48:21;100501.59;;;18.85;100.00
40998;BME280;26740;45.944;12.480;2022-08-19T02:50:49;100481.78;;;18.90;100.00
40998;BME280;26740;45.944;12.480;2022-08-19T02:53:24;100512.66;;;18.82;100.00
40998;BME280;26740;45.944;12.480;2022-08-19T02:55:51;100517.41;;;18.81;100.00
40998;BME280;26740;45.944;12.480;2022-08-19T02:58:18;100544.63;;;18.86;100.00
40998;BME280;26740;45.944;12.480;2022-08-19T03:00:46;100574.94;;;18.89;100.00
40998;BME280;26740;45.944;12.480;2022-08-19T03:03:12;100590.66;;;18.76;100.00
40998;BME280;26740;45.944;12.480;2022-08-19T03:05:38;100584.28;;;18.70;100.00
40998;BME280;26740;45.944;12.480;2022-08-19T03:08:04;100583.38;;;18.47;100.00
40998;BME280;26740;45.944;12.480;2022-08-19T03:10:32;100578.81;;;18.51;100.00
40998;BME280;26740;45.944;12.480;2022-08-19T03:12:58;100582.34;;;18.57;100.00
40998;BME280;26740;45.944;12.480;2022-08-19T03:15:23;100586.50;;;18.60;100.00
40998;BME280;26740;45.944;12.480;2022-08-19T03:17:49;100585.25;;;18.66;100.00
40998;BME280;26740;45.944;12.480;2022-08-19T03:20:15;100566.91;;;18.68;100.00
40998;BME280;26740;45.944;12.480;2022-08-19T03:22:40;100459.13;;;18.59;100.00
40998;BME280;26740;45.944;12.480;2022-08-19T03:25:06;100324.28;;;18.54;100.00
40998;BME280;26740;45.944;12.480;2022-08-19T03:27:32;100305.28;;;18.60;100.00
40998;BME280;26740;45.944;12.480;2022-08-19T03:29:58;100278.84;;;18.61;100.00
40998;BME280;26740;45.944;12.480;2022-08-19T03:32:24;100241.28;;;18.56;100.00
40998;BME280;26740;45.944;12.480;2022-08-19T03:34:50;100254.13;;;18.49;100.00
40998;BME280;26740;45.944;12.480;2022-08-19T03:37:17;100284.34;;;18.43;100.00
40998;BME280;26740;45.944;12.480;2022-08-19T03:39:43;100310.78;;;18.42;100.00
40998;BME280;26740;45.944;12.480;2022-08-19T03:42:09;100272.78;;;18.45;100.00
40998;BME280;26740;45.944;12.480;2022-08-19T03:44:35;100240.69;;;18.46;100.00
40998;BME280;26740;45.944;12.480;2022-08-19T03:47:04;100234.38;;;18.63;100.00
40998;BME280;26740;45.944;12.480;2022-08-19T03:49:31;100250.47;;;18.71;100.00
40998;BME280;26740;45.944;12.480;2022-08-19T03:52:00;100292.84;;;18.74;100.00
40998;BME280;26740;45.944;12.480;2022-08-19T03:54:27;100313.16;;;18.71;100.00
40998;BME280;26740;45.944;12.480;2022-08-19T03:56:54;100289.91;;;18.80;100.00
40998;BME280;26740;45.944;12.480;2022-08-19T03:59:28;100316.75;;;18.86;100.00
40998;BME280;26740;45.944;12.480;2022-08-19T04:01:56;100324.13;;;18.96;100.00
40998;BME280;26740;45.944;12.480;2022-08-19T04:04:25;100309.47;;;19.16;100.00
40998;BME280;26740;45.944;12.480;2022-08-19T04:06:51;100307.00;;;19.23;100.00
40998;BME280;26740;45.944;12.480;2022-08-19T04:09:18;100308.72;;;19.33;100.00
40998;BME280;26740;45.944;12.480;2022-08-19T04:11:47;100312.72;;;19.41;100.00
40998;BME280;26740;45.944;12.480;2022-08-19T04:14:16;100301.25;;;19.28;100.00
40998;BME280;26740;45.944;12.480;2022-08-19T04:16:45;100284.34;;;19.28;100.00
40998;BME280;26740;45.944;12.480;2022-08-19T04:19:13;100287.06;;;19.42;100.00
40998;BME280;26740;45.944;12.480;2022-08-19T04:21:39;100268.84;;;19.40;100.00
40998;BME280;26740;45.944;12.480;2022-08-19T04:24:06;100282.78;;;19.45;100.00
40998;BME280;26740;45.944;12.480;2022-08-19T04:26:34;100304.31;;;19.49;100.00
40998;BME280;26740;45.944;12.480;2022-08-19T04:29:05;100286.81;;;19.70;100.00
40998;BME280;26740;45.944;12.480;2022-08-19T04:31:32;100264.09;;;19.66;100.00
40998;BME280;26740;45.944;12.480;2022-08-19T04:34:04;100258.31;;;19.63;100.00
40998;BME280;26740;45.944;12.480;2022-08-19T04:36:34;100283.97;;;19.61;100.00
40998;BME280;26740;45.944;12.480;2022-08-19T04:39:04;100302.16;;;19.55;100.00
40998;BME280;26740;45.944;12.480;2022-08-19T04:41:30;100318.06;;;19.51;100.00
40998;BME280;26740;45.944;12.480;2022-08-19T04:44:14;100335.75;;;19.43;100.00
40998;BME280;26740;45.944;12.480;2022-08-19T04:46:44;100354.16;;;19.49;100.00
40998;BME280;26740;45.944;12.480;2022-08-19T04:49:10;100380.91;;;19.69;100.00
40998;BME280;26740;45.944;12.480;2022-08-19T04:51:40;100397.22;;;19.81;100.00
40998;BME280;26740;45.944;12.480;2022-08-19T04:54:06;100407.72;;;19.89;100.00
40998;BME280;26740;45.944;12.480;2022-08-19T04:56:31;100420.16;;;19.97;100.00
40998;BME280;26740;45.944;12.480;2022-08-19T04:58:57;100434.09;;;20.02;100.00
40998;BME280;26740;45.944;12.480;2022-08-19T05:01:26;100440.06;;;20.00;100.00
40998;BME280;26740;45.944;12.480;2022-08-19T05:03:54;100442.94;;;20.18;100.00
40998;BME280;26740;45.944;12.480;2022-08-19T05:06:21;100444.44;;;20.33;100.00
40998;BME280;26740;45.944;12.480;2022-08-19T05:08:47;100449.81;;;20.52;100.00
40998;BME280;26740;45.944;12.480;2022-08-19T05:11:16;100452.50;;;20.66;100.00
40998;BME280;26740;45.944;12.480;2022-08-19T05:13:46;100453.66;;;20.91;100.00
40998;BME280;26740;45.944;12.480;2022-08-19T05:16:15;100469.28;;;21.14;100.00
40998;BME280;26740;45.944;12.480;2022-08-19T05:18:42;100457.28;;;21.52;100.00
40998;BME280;26740;45.944;12.480;2022-08-19T05:21:27;100468.16;;;21.80;100.00
40998;BME280;26740;45.944;12.480;2022-08-19T05:24:12;100457.66;;;21.89;100.00
40998;BME280;26740;45.944;12.480;2022-08-19T05:26:47;100453.63;;;21.43;100.00
40998;BME280;26740;45.944;12.480;2022-08-19T05:29:20;100457.44;;;21.30;100.00
40998;BME280;26740;45.944;12.480;2022-08-19T05:31:47;100454.97;;;21.28;100.00
40998;BME280;26740;45.944;12.480;2022-08-19T05:34:21;100462.47;;;21.15;100.00
40998;BME280;26740;45.944;12.480;2022-08-19T05:36:48;100461.16;;;21.21;100.00
40998;BME280;26740;45.944;12.480;2022-08-19T05:39:18;100465.63;;;21.05;100.00
40998;BME280;26740;45.944;12.480;2022-08-19T05:41:47;100464.47;;;20.97;100.00
40998;BME280;26740;45.944;12.480;2022-08-19T05:44:14;100464.16;;;20.99;100.00
40998;BME280;26740;45.944;12.480;2022-08-19T05:46:40;100444.56;;;20.94;100.00
40998;BME280;26740;45.944;12.480;2022-08-19T05:49:06;100460.50;;;20.81;100.00
40998;BME280;26740;45.944;12.480;2022-08-19T05:51:33;100480.75;;;20.83;100.00
40998;BME280;26740;45.944;12.480;2022-08-19T05:54:00;100483.56;;;20.92;100.00
40998;BME280;26740;45.944;12.480;2022-08-19T05:56:26;100480.59;;;21.06;100.00
40998;BME280;26740;45.944;12.480;2022-08-19T05:58:52;100473.59;;;21.12;100.00
40998;BME280;26740;45.944;12.480;2022-08-19T06:01:20;100455.84;;;21.11;100.00
40998;BME280;26740;45.944;12.480;2022-08-19T06:03:46;100447.84;;;21.05;100.00
40998;BME280;26740;45.944;12.480;2022-08-19T06:06:14;100435.75;;;21.04;100.00
40998;BME280;26740;45.944;12.480;2022-08-19T06:08:41;100421.81;;;20.99;100.00
40998;BME280;26740;45.944;12.480;2022-08-19T06:13:39;100426.09;;;21.05;100.00
40998;BME280;26740;45.944;12.480;2022-08-19T06:16:05;100424.28;;;21.09;100.00
40998;BME280;26740;45.944;12.480;2022-08-19T06:18:30;100419.13;;;21.11;100.00
40998;BME280;26740;45.944;12.480;2022-08-19T06:20:56;100406.00;;;21.15;100.00
40998;BME280;26740;45.944;12.480;2022-08-19T06:23:22;100418.69;;;21.56;100.00
40998;BME280;26740;45.944;12.480;2022-08-19T06:25:48;100417.41;;;22.22;100.00
40998;BME280;26740;45.944;12.480;2022-08-19T06:28:13;100406.41;;;22.93;100.00
40998;BME280;26740;45.944;12.480;2022-08-19T06:30:39;100402.09;;;23.87;100.00
40998;BME280;26740;45.944;12.480;2022-08-19T06:33:05;100395.09;;;24.21;100.00
40998;BME280;26740;45.944;12.480;2022-08-19T06:35:30;100386.22;;;24.22;100.00
40998;BME280;26740;45.944;12.480;2022-08-19T06:37:56;100377.38;;;25.65;100.00
40998;BME280;26740;45.944;12.480;2022-08-19T06:40:22;100391.94;;;26.63;100.00
40998;BME280;26740;45.944;12.480;2022-08-19T06:42:47;100396.72;;;27.17;100.00
40998;BME280;26740;45.944;12.480;2022-08-19T06:45:13;100408.06;;;27.14;100.00
40998;BME280;26740;45.944;12.480;2022-08-19T06:47:40;100404.53;;;26.26;100.00
40998;BME280;26740;45.944;12.480;2022-08-19T06:50:09;100403.25;;;26.43;100.00
40998;BME280;26740;45.944;12.480;2022-08-19T06:52:35;100404.81;;;26.57;100.00
40998;BME280;26740;45.944;12.480;2022-08-19T06:55:02;100418.72;;;26.42;100.00
40998;BME280;26740;45.944;12.480;2022-08-19T06:57:28;100421.44;;;26.19;100.00
40998;BME280;26740;45.944;12.480;2022-08-19T06:59:58;100409.28;;;25.74;100.00
40998;BME280;26740;45.944;12.480;2022-08-19T07:02:26;100400.09;;;25.33;100.00
40998;BME280;26740;45.944;12.480;2022-08-19T07:04:52;100400.75;;;25.43;100.00
40998;BME280;26740;45.944;12.480;2022-08-19T07:07:19;100406.81;;;25.57;100.00
40998;BME280;26740;45.944;12.480;2022-08-19T07:09:46;100418.47;;;25.52;100.00
40998;BME280;26740;45.944;12.480;2022-08-19T07:12:13;100418.66;;;25.43;100.00
40998;BME280;26740;45.944;12.480;2022-08-19T07:14:41;100421.59;;;25.47;100.00
40998;BME280;26740;45.944;12.480;2022-08-19T07:17:10;100414.59;;;25.16;100.00
40998;BME280;26740;45.944;12.480;2022-08-19T07:19:37;100419.47;;;25.15;100.00
40998;BME280;26740;45.944;12.480;2022-08-19T07:22:06;100434.59;;;24.91;100.00
40998;BME280;26740;45.944;12.480;2022-08-19T07:24:33;100442.19;;;24.87;100.00
40998;BME280;26740;45.944;12.480;2022-08-19T07:27:00;100436.06;;;24.73;100.00
40998;BME280;26740;45.944;12.480;2022-08-19T07:29:32;100438.81;;;24.69;100.00
40998;BME280;26740;45.944;12.480;2022-08-19T07:32:00;100433.72;;;24.50;100.00
40998;BME280;26740;45.944;12.480;2022-08-19T07:34:29;100438.25;;;24.14;100.00
40998;BME280;26740;45.944;12.480;2022-08-19T07:36:55;100437.75;;;24.12;100.00
40998;BME280;26740;45.944;12.480;2022-08-19T07:39:24;100446.88;;;23.93;100.00
40998;BME280;26740;45.944;12.480;2022-08-19T07:41:51;100445.91;;;23.43;100.00
40998;BME280;26740;45.944;12.480;2022-08-19T07:44:17;100448.16;;;23.38;100.00
40998;BME280;26740;45.944;12.480;2022-08-19T07:46:46;100439.84;;;23.78;100.00
40998;BME280;26740;45.944;12.480;2022-08-19T07:49:13;100432.72;;;23.47;100.00
40998;BME280;26740;45.944;12.480;2022-08-19T07:51:46;100434.09;;;23.87;100.00
40998;BME280;26740;45.944;12.480;2022-08-19T07:54:12;100438.56;;;23.76;100.00
40998;BME280;26740;45.944;12.480;2022-08-19T07:56:38;100436.38;;;24.18;100.00
40998;BME280;26740;45.944;12.480;2022-08-19T07:59:05;100442.09;;;25.12;100.00
40998;BME280;26740;45.944;12.480;2022-08-19T08:01:30;100455.00;;;25.09;100.00
40998;BME280;26740;45.944;12.480;2022-08-19T08:03:57;100444.41;;;25.34;100.00
40998;BME280;26740;45.944;12.480;2022-08-19T08:06:42;100448.56;;;25.69;100.00
40998;BME280;26740;45.944;12.480;2022-08-19T08:09:30;100440.09;;;25.41;100.00
40998;BME280;26740;45.944;12.480;2022-08-19T08:12:08;100431.97;;;25.87;100.00
40998;BME280;26740;45.944;12.480;2022-08-19T08:14:47;100436.94;;;26.57;100.00
40998;BME280;26740;45.944;12.480;2022-08-19T08:17:19;100429.28;;;26.26;100.00
40998;BME280;26740;45.944;12.480;2022-08-19T08:19:46;100429.75;;;26.99;100.00
40998;BME280;26740;45.944;12.480;2022-08-19T08:22:15;100424.19;;;26.67;100.00
40998;BME280;26740;45.944;12.480;2022-08-19T08:25:12;100430.50;;;27.15;100.00
40998;BME280;26740;45.944;12.480;2022-08-19T08:27:41;100439.84;;;28.51;100.00
40998;BME280;26740;45.944;12.480;2022-08-19T08:30:10;100446.09;;;29.51;100.00
40998;BME280;26740;45.944;12.480;2022-08-19T08:32:37;100453.53;;;30.49;100.00
40998;BME280;26740;45.944;12.480;2022-08-19T08:35:06;100456.56;;;31.72;91.83
40998;BME280;26740;45.944;12.480;2022-08-19T08:37:32;100470.13;;;32.58;73.63
40998;BME280;26740;45.944;12.480;2022-08-19T08:39:58;100462.63;;;33.11;73.83
40998;BME280;26740;45.944;12.480;2022-08-19T08:42:32;100466.69;;;33.95;73.84
40998;BME280;26740;45.944;12.480;2022-08-19T08:45:05;100459.84;;;32.72;72.38
40998;BME280;26740;45.944;12.480;2022-08-19T08:47:36;100452.09;;;31.89;79.33
40998;BME280;26740;45.944;12.480;2022-08-19T08:50:08;100443.50;;;30.80;83.33
40998;BME280;26740;45.944;12.480;2022-08-19T08:52:41;100447.22;;;29.80;88.54
40998;BME280;26740;45.944;12.480;2022-08-19T08:55:18;100446.50;;;29.53;85.71
40998;BME280;26740;45.944;12.480;2022-08-19T09:00:22;100438.19;;;29.78;93.04
40998;BME280;26740;45.944;12.480;2022-08-19T09:02:49;100424.94;;;30.59;89.23
40998;BME280;26740;45.944;12.480;2022-08-19T09:05:15;100435.25;;;31.99;76.38
40998;BME280;26740;45.944;12.480;2022-08-19T09:07:53;100427.84;;;32.66;74.52
40998;BME280;26740;45.944;12.480;2022-08-19T09:10:39;100419.25;;;32.48;72.54
40998;BME280;26740;45.944;12.480;2022-08-19T09:16:19;100418.78;;;31.45;74.88
40998;BME280;26740;45.944;12.480;2022-08-19T09:18:55;100415.38;;;31.07;74.89
40998;BME280;26740;45.944;12.480;2022-08-19T09:21:23;100409.47;;;30.71;76.87
40998;BME280;26740;45.944;12.480;2022-08-19T09:23:51;100414.16;;;30.38;78.39
40998;BME280;26740;45.944;12.480;2022-08-19T09:26:20;100423.53;;;29.83;81.43
40998;BME280;26740;45.944;12.480;2022-08-19T09:28:48;100422.44;;;29.58;86.96
40998;BME280;26740;45.944;12.480;2022-08-19T09:31:17;100422.69;;;29.79;85.60
40998;BME280;26740;45.944;12.480;2022-08-19T09:33:43;100416.63;;;29.88;83.89
40998;BME280;26740;45.944;12.480;2022-08-19T09:36:11;100409.81;;;30.07;86.03
40998;BME280;26740;45.944;12.480;2022-08-19T09:38:39;100421.28;;;30.11;76.90
40998;BME280;26740;45.944;12.480;2022-08-19T09:41:10;100411.84;;;30.03;81.85
40998;BME280;26740;45.944;12.480;2022-08-19T09:43:40;100405.75;;;29.63;81.53
40998;BME280;26740;45.944;12.480;2022-08-19T09:46:08;100410.09;;;29.50;84.83
40998;BME280;26740;45.944;12.480;2022-08-19T09:48:37;100408.34;;;29.38;92.48
40998;BME280;26740;45.944;12.480;2022-08-19T09:51:11;100409.47;;;28.96;91.74
40998;BME280;26740;45.944;12.480;2022-08-19T09:53:42;100416.03;;;28.66;95.23
40998;BME280;26740;45.944;12.480;2022-08-19T09:56:08;100400.09;;;28.12;93.68
40998;BME280;26740;45.944;12.480;2022-08-19T09:58:35;100395.03;;;28.28;95.92
40998;BME280;26740;45.944;12.480;2022-08-19T10:01:02;100405.72;;;28.92;91.72
40998;BME280;26740;45.944;12.480;2022-08-19T10:03:29;100408.50;;;28.85;88.78
40998;BME280;26740;45.944;12.480;2022-08-19T10:05:57;100400.56;;;28.71;87.48
40998;BME280;26740;45.944;12.480;2022-08-19T10:08:27;100402.00;;;28.04;94.14
40998;BME280;26740;45.944;12.480;2022-08-19T10:10:54;100420.09;;;27.66;97.77
40998;BME280;26740;45.944;12.480;2022-08-19T10:13:22;100424.56;;;27.67;97.40
40998;BME280;26740;45.944;12.480;2022-08-19T10:15:52;100437.00;;;26.96;100.00
40998;BME280;26740;45.944;12.480;2022-08-19T10:18:20;100436.72;;;27.40;100.00
40998;BME280;26740;45.944;12.480;2022-08-19T10:20:48;100444.66;;;26.73;100.00
40998;BME280;26740;45.944;12.480;2022-08-19T10:23:14;100446.69;;;26.92;100.00
40998;BME280;26740;45.944;12.480;2022-08-19T10:25:43;100442.75;;;28.81;97.12
40998;BME280;26740;45.944;12.480;2022-08-19T10:28:09;100441.47;;;28.75;95.82
40998;BME280;26740;45.944;12.480;2022-08-19T10:30:40;100439.03;;;30.27;87.59
40998;BME280;26740;45.944;12.480;2022-08-19T10:33:06;100433.69;;;30.25;78.90
40998;BME280;26740;45.944;12.480;2022-08-19T10:35:32;100436.84;;;31.49;75.75
40998;BME280;26740;45.944;12.480;2022-08-19T10:37:58;100436.03;;;31.56;63.29
40998;BME280;26740;45.944;12.480;2022-08-19T10:40:26;100440.66;;;30.87;66.04
40998;BME280;26740;45.944;12.480;2022-08-19T10:42:53;100439.66;;;30.58;65.89
40998;BME280;26740;45.944;12.480;2022-08-19T10:45:19;100447.31;;;30.36;65.40
40998;BME280;26740;45.944;12.480;2022-08-19T10:47:47;100444.75;;;29.79;65.14
40998;BME280;26740;45.944;12.480;2022-08-19T10:50:13;100461.34;;;29.66;70.90
40998;BME280;26740;45.944;12.480;2022-08-19T10:53:06;100457.50;;;29.47;72.14
40998;BME280;26740;45.944;12.480;2022-08-19T10:55:34;100460.69;;;29.42;72.07
40998;BME280;26740;45.944;12.480;2022-08-19T10:58:21;100471.75;;;29.13;70.38
40998;BME280;26740;45.944;12.480;2022-08-19T11:00:56;100473.19;;;29.27;71.73
40998;BME280;26740;45.944;12.480;2022-08-19T11:03:23;100474.97;;;29.08;73.76
40998;BME280;26740;45.944;12.480;2022-08-19T11:06:04;100478.22;;;29.37;70.50
40998;BME280;26740;45.944;12.480;2022-08-19T11:08:31;100488.81;;;29.06;74.28
40998;BME280;26740;45.944;12.480;2022-08-19T11:11:00;100484.78;;;29.11;77.43
40998;BME280;26740;45.944;12.480;2022-08-19T11:13:29;100485.72;;;29.49;71.56
40998;BME280;26740;45.944;12.480;2022-08-19T11:16:00;100489.44;;;29.91;70.93
40998;BME280;26740;45.944;12.480;2022-08-19T11:18:27;100482.78;;;31.56;64.01
40998;BME280;26740;45.944;12.480;2022-08-19T11:20:53;100489.88;;;32.09;64.90
40998;BME280;26740;45.944;12.480;2022-08-19T11:23:19;100475.88;;;32.73;60.85
40998;BME280;26740;45.944;12.480;2022-08-19T11:25:45;100475.09;;;32.15;64.54
40998;BME280;26740;45.944;12.480;2022-08-19T11:28:12;100475.50;;;32.56;59.93
40998;BME280;26740;45.944;12.480;2022-08-19T11:30:39;100473.44;;;32.57;63.95
40998;BME280;26740;45.944;12.480;2022-08-19T11:33:04;100466.06;;;32.20;63.96
40998;BME280;26740;45.944;12.480;2022-08-19T11:35:30;100468.94;;;32.09;63.71
40998;BME280;26740;45.944;12.480;2022-08-19T11:37:56;100463.81;;;31.34;64.42
40998;BME280;26740;45.944;12.480;2022-08-19T11:40:24;100457.63;;;31.21;64.69
40998;BME280;26740;45.944;12.480;2022-08-19T11:42:49;100448.34;;;31.60;62.71
40998;BME280;26740;45.944;12.480;2022-08-19T11:45:27;100447.31;;;31.06;66.47
40998;BME280;26740;45.944;12.480;2022-08-19T11:47:54;100455.13;;;29.94;67.49
40998;BME280;26740;45.944;12.480;2022-08-19T11:50:20;100451.81;;;29.17;70.50
40998;BME280;26740;45.944;12.480;2022-08-19T11:52:48;100441.75;;;28.97;67.00
40998;BME280;26740;45.944;12.480;2022-08-19T11:55:15;100444.41;;;30.32;66.15
40998;BME280;26740;45.944;12.480;2022-08-19T11:57:41;100439.72;;;30.69;65.46
40998;BME280;26740;45.944;12.480;2022-08-19T12:00:09;100436.38;;;30.00;69.19
40998;BME280;26740;45.944;12.480;2022-08-19T12:02:38;100442.34;;;29.13;70.33
40998;BME280;26740;45.944;12.480;2022-08-19T12:05:04;100439.00;;;29.07;72.21
40998;BME280;26740;45.944;12.480;2022-08-19T12:07:31;100436.84;;;30.10;70.81
40998;BME280;26740;45.944;12.480;2022-08-19T12:09:59;100445.03;;;30.08;78.51
40998;BME280;26740;45.944;12.480;2022-08-19T12:12:26;100437.19;;;29.60;71.16
40998;BME280;26740;45.944;12.480;2022-08-19T12:14:53;100437.94;;;28.89;75.36
40998;BME280;26740;45.944;12.480;2022-08-19T12:17:24;100436.63;;;28.52;75.41
40998;BME280;26740;45.944;12.480;2022-08-19T12:19:50;100438.16;;;27.96;79.73
40998;BME280;26740;45.944;12.480;2022-08-19T12:22:15;100431.97;;;27.48;76.93
40998;BME280;26740;45.944;12.480;2022-08-19T12:24:41;100437.41;;;27.34;76.48
40998;BME280;26740;45.944;12.480;2022-08-19T12:27:07;100441.66;;;27.24;76.47
40998;BME280;26740;45.944;12.480;2022-08-19T12:29:33;100437.69;;;27.09;76.93
40998;BME280;26740;45.944;12.480;2022-08-19T12:31:59;100432.09;;;26.93;77.50
40998;BME280;26740;45.944;12.480;2022-08-19T12:34:31;100441.44;;;27.13;81.26
40998;BME280;26740;45.944;12.480;2022-08-19T12:36:59;100429.00;;;27.02;78.21
40998;BME280;26740;45.944;12.480;2022-08-19T12:39:26;100440.16;;;26.91;78.04
40998;BME280;26740;45.944;12.480;2022-08-19T12:41:52;100445.03;;;26.71;81.82
40998;BME280;26740;45.944;12.480;2022-08-19T12:44:19;100440.66;;;26.42;81.39
40998;BME280;26740;45.944;12.480;2022-08-19T12:46:44;100444.28;;;26.23;85.86
40998;BME280;26740;45.944;12.480;2022-08-19T12:49:10;100441.38;;;26.03;85.83
40998;BME280;26740;45.944;12.480;2022-08-19T12:51:36;100452.09;;;25.94;85.97